Decoded Metar for KBRY ( in ) (IATA:) | Meteo·Mobile Aviation Weather
aviador You're here:

KBRY Decoded Metar

in
Report Time2018-11-18 05:55:00
UTC Time2018-11-18 06:14:56
Flight Rules mvfr MVFR
WindCalm
Visibility8047 m
Phenomena:N/A
Clouds:N/A
Expected CloudBase > 400 ft AGL from Temp-Dew spread
CeilingNone
Temp02°C
Dew Point01°C (93% RH)
AAT0.2°C
QNH1022 hPa
Raw Report
METAR KBRY 180555Z AUTO 00000KT 5SM CLR 02/01 A3018 RMK AO1=

Extra information for KBRY:More info

Social comments